Time;durP1;ratioP1;P1;durP2;ratioP2;P2;SDS_P1;SDS_P2;PMS_P1;PMS_P2;Temp;Humidity;BMP_temperature;BMP_pressure;BME280_temperature;BME280_humidity;BME280_pressure;Samples;Min_cycle;Max_cycle;Signal;HPM_P1;HPM_P2
2024/02/19 00:00:24;;;;;;;;;;;;;;;4.56;59.38;99755.48;68422;1279;1015778;-71
2024/02/19 00:03:47;;;;;;;;;;;;;;;4.59;58.99;99756.80;68420;1279;1016366;-71
2024/02/19 00:06:50;;;;;;;;;;;;;;;4.60;59.48;99746.73;68418;1279;1015889;-71
2024/02/19 00:09:53;;;;;;;;;;;;;;;4.55;59.52;99745.96;68395;1279;1015890;-70
2024/02/19 00:12:55;;;;;;;;;;;;;;;4.55;59.41;99739.91;68400;1279;1015665;-71
2024/02/19 00:15:58;;;;;;;;;;;;;;;4.53;59.63;99737.86;68413;1279;1014572;-71
2024/02/19 00:19:00;;;;;;;;;;;;;;;4.50;59.74;99731.51;68434;1279;1014500;-63
2024/02/19 00:22:03;;;;;;;;;;;;;;;4.45;59.97;99726.79;68402;1279;1015575;-71
2024/02/19 00:25:05;;;;;;;;;;;;;;;4.43;60.15;99724.75;68409;1279;1015718;-69
2024/02/19 00:28:10;;;;;;;;;;;;;;;4.37;60.67;99720.02;68410;1279;1015753;-71
2024/02/19 00:31:13;;;;;;;;;;;;;;;4.33;60.61;99716.28;68424;1279;1015666;-70
2024/02/19 00:34:15;;;;;;;;;;;;;;;4.36;60.71;99708.43;68420;1279;1015293;-71
2024/02/19 00:37:18;;;;;;;;;;;;;;;4.37;60.46;99704.96;68436;1279;1015692;-70
2024/02/19 00:40:20;;;;;;;;;;;;;;;4.54;60.39;99697.50;68420;1279;1016097;-70
2024/02/19 00:43:23;;;;;;;;;;;;;;;4.53;59.93;99696.46;68409;1279;1015961;-71
2024/02/19 00:46:27;;;;;;;;;;;;;;;4.62;59.79;99689.52;68415;1279;1015883;-71
2024/02/19 00:49:29;;;;;;;;;;;;;;;4.63;59.59;99689.14;68399;1279;1016222;-70
2024/02/19 00:52:32;;;;;;;;;;;;;;;4.55;59.92;99685.89;68405;1279;1015638;-66
2024/02/19 00:55:34;;;;;;;;;;;;;;;4.46;60.34;99685.01;68421;1279;1015886;-70
2024/02/19 00:58:37;;;;;;;;;;;;;;;4.38;60.42;99670.83;68411;1279;1016162;-70
2024/02/19 01:01:39;;;;;;;;;;;;;;;4.45;60.46;99658.02;68411;1279;1015968;-71
2024/02/19 01:04:42;;;;;;;;;;;;;;;4.34;60.65;99652.70;68427;1279;1015951;-71
2024/02/19 01:07:45;;;;;;;;;;;;;;;4.34;60.92;99639.55;68412;1279;1015767;-71
2024/02/19 01:10:47;;;;;;;;;;;;;;;4.29;61.07;99640.71;68416;1279;1015698;-71
2024/02/19 01:13:50;;;;;;;;;;;;;;;4.30;61.15;99633.95;68419;1279;1015402;-70
2024/02/19 01:16:52;;;;;;;;;;;;;;;4.22;61.49;99628.76;68412;1279;1015376;-71
2024/02/19 01:19:56;;;;;;;;;;;;;;;4.20;61.47;99622.73;68415;1279;1015537;-71
2024/02/19 01:22:58;;;;;;;;;;;;;;;4.21;61.29;99615.95;68435;1279;1016359;-72
2024/02/19 01:26:01;;;;;;;;;;;;;;;4.32;61.05;99611.73;68432;1279;1014100;-69
2024/02/19 01:29:04;;;;;;;;;;;;;;;4.32;61.30;99611.04;68400;1279;1016019;-69
2024/02/19 01:32:07;;;;;;;;;;;;;;;4.32;61.04;99610.86;68421;1279;1015750;-71
2024/02/19 01:35:09;;;;;;;;;;;;;;;4.32;61.04;99604.82;68427;1279;1015863;-71
2024/02/19 01:38:12;;;;;;;;;;;;;;;4.22;61.56;99593.77;68418;1279;1015439;-71
2024/02/19 01:41:14;;;;;;;;;;;;;;;4.18;62.37;99592.33;68424;1279;1015754;-71
2024/02/19 01:44:17;;;;;;;;;;;;;;;4.20;61.65;99586.23;68415;1279;1016162;-71
2024/02/19 01:47:20;;;;;;;;;;;;;;;4.20;61.65;99578.59;68430;1279;1015585;-71
2024/02/19 01:50:23;;;;;;;;;;;;;;;4.12;61.61;99574.26;68420;1279;1016167;-71
2024/02/19 01:53:26;;;;;;;;;;;;;;;4.15;62.02;99570.23;68412;1279;1015821;-71
2024/02/19 01:56:28;;;;;;;;;;;;;;;4.12;62.17;99563.71;68421;1279;1015336;-71
2024/02/19 01:59:31;;;;;;;;;;;;;;;4.08;62.42;99556.86;68419;1279;1015736;-70
2024/02/19 02:02:34;;;;;;;;;;;;;;;4.06;62.31;99559.86;68426;1279;1015691;-71
2024/02/19 02:05:36;;;;;;;;;;;;;;;4.02;62.37;99554.60;68416;1279;1014677;-71
2024/02/19 02:08:40;;;;;;;;;;;;;;;4.05;62.35;99544.13;68426;1279;1015925;-71
2024/02/19 02:11:43;;;;;;;;;;;;;;;4.06;62.17;99543.61;68435;1279;1015961;-71
2024/02/19 02:14:46;;;;;;;;;;;;;;;4.09;62.53;99544.39;68430;1279;1015998;-71
2024/02/19 02:17:48;;;;;;;;;;;;;;;4.06;62.68;99535.65;68446;1279;1016001;-71
2024/02/19 02:20:51;;;;;;;;;;;;;;;4.08;62.39;99535.41;68435;1279;1015671;-71
2024/02/19 02:23:53;;;;;;;;;;;;;;;4.04;62.36;99528.56;68425;1279;1016178;-70
2024/02/19 02:26:56;;;;;;;;;;;;;;;3.98;62.56;99520.92;68432;1279;1015363;-71
2024/02/19 02:29:59;;;;;;;;;;;;;;;3.98;62.49;99520.74;68426;1279;1015296;-71
2024/02/19 02:33:01;;;;;;;;;;;;;;;3.95;63.16;99516.84;68433;1279;1015582;-71
2024/02/19 02:36:05;;;;;;;;;;;;;;;4.01;63.01;99510.32;68442;1279;1015445;-71
2024/02/19 02:39:08;;;;;;;;;;;;;;;4.03;62.94;99504.20;68424;1279;1015536;-70
2024/02/19 02:42:10;;;;;;;;;;;;;;;4.07;63.12;99498.21;68427;1279;1015157;-71
2024/02/19 02:45:13;;;;;;;;;;;;;;;4.03;62.92;99494.35;68438;1279;1016125;-70
2024/02/19 02:48:16;;;;;;;;;;;;;;;4.00;63.20;99496.83;68436;1279;1016229;-71
2024/02/19 02:51:18;;;;;;;;;;;;;;;3.95;64.04;99487.25;68416;1279;1015961;-71
2024/02/19 02:54:21;;;;;;;;;;;;;;;3.88;63.94;99491.39;68435;1279;1015316;-71
2024/02/19 02:57:23;;;;;;;;;;;;;;;3.98;63.87;99486.14;68434;1279;1015519;-71
2024/02/19 03:00:26;;;;;;;;;;;;;;;3.98;63.65;99481.12;68442;1279;1016025;-71
2024/02/19 03:03:32;;;;;;;;;;;;;;;4.00;63.77;99476.74;68420;1279;1016217;-71
2024/02/19 03:06:35;;;;;;;;;;;;;;;4.04;63.73;99469.92;68432;1279;1016290;-71
2024/02/19 03:09:37;;;;;;;;;;;;;;;4.13;63.49;99459.98;68433;1279;1016184;-71
2024/02/19 03:12:40;;;;;;;;;;;;;;;4.08;63.59;99463.23;68419;1279;1015436;-71
2024/02/19 03:15:43;;;;;;;;;;;;;;;4.06;63.57;99459.30;68432;1279;1015190;-71
2024/02/19 03:18:46;;;;;;;;;;;;;;;3.99;63.65;99453.23;68438;1279;1016113;-72
2024/02/19 03:21:48;;;;;;;;;;;;;;;4.03;63.57;99450.03;68429;1279;1015318;-71
2024/02/19 03:24:51;;;;;;;;;;;;;;;4.07;63.49;99450.27;68428;1279;1015924;-71
2024/02/19 03:27:54;;;;;;;;;;;;;;;4.07;63.78;99445.44;68442;1279;1016016;-71
2024/02/19 03:30:56;;;;;;;;;;;;;;;4.03;64.05;99441.39;68414;1280;1016089;-70
2024/02/19 03:33:59;;;;;;;;;;;;;;;4.09;63.48;99439.84;68433;1279;1015803;-71
2024/02/19 03:37:01;;;;;;;;;;;;;;;4.16;63.15;99435.70;68431;1279;1016347;-71
2024/02/19 03:40:07;;;;;;;;;;;;;;;4.05;63.35;99435.44;68425;1279;1015382;-72
2024/02/19 03:43:11;;;;;;;;;;;;;;;4.10;63.69;99428.05;68415;1279;1014819;-71
2024/02/19 03:46:14;;;;;;;;;;;;;;;4.07;63.46;99421.20;68435;1279;1015794;-71
2024/02/19 03:49:17;;;;;;;;;;;;;;;4.13;63.48;99414.82;68422;1279;1015403;-71
2024/02/19 03:52:20;;;;;;;;;;;;;;;4.05;63.73;99402.73;68433;1279;1016027;-71
2024/02/19 03:55:23;;;;;;;;;;;;;;;4.01;63.87;99402.84;68424;1279;1015250;-71
2024/02/19 03:58:25;;;;;;;;;;;;;;;4.08;63.41;99401.60;68425;1279;1016055;-71
2024/02/19 04:01:28;;;;;;;;;;;;;;;4.06;63.75;99398.73;68435;1279;1015413;-71
2024/02/19 04:04:30;;;;;;;;;;;;;;;3.96;63.89;99395.70;68444;1279;1015189;-71
2024/02/19 04:07:33;;;;;;;;;;;;;;;3.93;64.04;99391.96;68423;1279;1016026;-71
2024/02/19 04:10:36;;;;;;;;;;;;;;;3.98;63.89;99384.90;68432;1279;1016094;-71
2024/02/19 04:13:38;;;;;;;;;;;;;;;4.08;63.24;99380.31;68424;1279;1015147;-69
2024/02/19 04:16:41;;;;;;;;;;;;;;;3.97;63.92;99379.55;68435;1279;1015278;-71
2024/02/19 04:19:44;;;;;;;;;;;;;;;3.97;64.18;99379.20;68441;1279;1014886;-71
2024/02/19 04:22:46;;;;;;;;;;;;;;;3.87;64.50;99372.55;68438;1279;1014580;-70
2024/02/19 04:25:49;;;;;;;;;;;;;;;3.91;64.23;99366.91;68437;1279;1015903;-71
2024/02/19 04:28:53;;;;;;;;;;;;;;;3.89;64.58;99361.95;68428;1279;1015914;-72
2024/02/19 04:31:56;;;;;;;;;;;;;;;3.86;64.66;99357.52;68423;1279;1015857;-71
2024/02/19 04:34:58;;;;;;;;;;;;;;;3.81;64.77;99353.83;68422;1279;1016314;-71
2024/02/19 04:38:01;;;;;;;;;;;;;;;3.87;65.04;99341.23;68446;1279;1015744;-71
2024/02/19 04:41:04;;;;;;;;;;;;;;;3.88;64.96;99343.81;68451;1279;1015995;-71
2024/02/19 04:44:06;;;;;;;;;;;;;;;3.70;65.91;99350.14;68441;1279;1015679;-71
2024/02/19 04:47:09;;;;;;;;;;;;;;;3.67;66.34;99347.61;68431;1280;1016621;-71
2024/02/19 04:50:11;;;;;;;;;;;;;;;3.63;66.95;99337.52;68449;1279;1015164;-71
2024/02/19 04:53:18;;;;;;;;;;;;;;;3.60;67.14;99327.02;68439;1279;1015489;-71
2024/02/19 04:56:20;;;;;;;;;;;;;;;3.59;67.41;99313.21;68432;1279;1014240;-70
2024/02/19 04:59:23;;;;;;;;;;;;;;;3.60;67.53;99316.30;68434;1280;1016131;-71
2024/02/19 05:02:25;;;;;;;;;;;;;;;3.66;67.55;99315.98;68429;1280;1015723;-71
2024/02/19 05:05:28;;;;;;;;;;;;;;;3.73;67.39;99311.66;68422;1280;1015242;-71
2024/02/19 05:08:30;;;;;;;;;;;;;;;3.80;66.97;99310.27;68451;1279;1015385;-71
2024/02/19 05:11:33;;;;;;;;;;;;;;;3.90;66.67;99311.57;68425;1279;1016192;-71
2024/02/19 05:14:36;;;;;;;;;;;;;;;3.89;67.10;99306.23;68439;1279;1016618;-64
2024/02/19 05:17:39;;;;;;;;;;;;;;;3.94;67.07;99294.17;68440;1279;1014926;-71
2024/02/19 05:20:41;;;;;;;;;;;;;;;3.98;66.70;99290.94;68424;1279;1016656;-71
2024/02/19 05:23:44;;;;;;;;;;;;;;;4.00;66.93;99288.29;68413;1279;1015260;-70
2024/02/19 05:26:46;;;;;;;;;;;;;;;4.01;66.88;99281.52;68441;1279;1015270;-71
2024/02/19 05:29:49;;;;;;;;;;;;;;;3.97;66.93;99280.59;68438;1280;1015250;-71
2024/02/19 05:32:53;;;;;;;;;;;;;;;4.09;66.53;99283.56;68441;1280;1015585;-71
2024/02/19 05:35:55;;;;;;;;;;;;;;;4.12;66.41;99278.64;68438;1279;1015744;-71
2024/02/19 05:38:58;;;;;;;;;;;;;;;4.10;66.66;99272.81;68453;1280;1015734;-71
2024/02/19 05:42:00;;;;;;;;;;;;;;;4.02;66.94;99269.04;68433;1280;1016142;-71
2024/02/19 05:45:03;;;;;;;;;;;;;;;4.09;66.89;99271.45;68445;1279;1015723;-71
2024/02/19 05:48:05;;;;;;;;;;;;;;;4.12;67.11;99267.89;68444;1280;1015750;-71
2024/02/19 05:51:08;;;;;;;;;;;;;;;4.28;66.36;99263.30;68415;1279;1016084;-71
2024/02/19 05:54:10;;;;;;;;;;;;;;;4.39;66.33;99261.96;68436;1279;1015813;-71
2024/02/19 05:57:14;;;;;;;;;;;;;;;4.41;65.98;99255.99;68436;1280;1015673;-70
2024/02/19 06:00:16;;;;;;;;;;;;;;;4.49;66.00;99251.96;68429;1280;1016215;-71
2024/02/19 06:03:21;;;;;;;;;;;;;;;4.55;66.26;99256.30;68431;1279;1015967;-71
2024/02/19 06:06:24;;;;;;;;;;;;;;;4.58;65.99;99251.19;68405;1279;1016110;-71
2024/02/19 06:09:26;;;;;;;;;;;;;;;4.67;65.79;99249.70;68437;1279;1015392;-71
2024/02/19 06:12:29;;;;;;;;;;;;;;;4.79;65.55;99251.77;68428;1279;1015408;-70
2024/02/19 06:15:31;;;;;;;;;;;;;;;4.76;65.42;99239.38;68446;1279;1015448;-71
2024/02/19 06:18:34;;;;;;;;;;;;;;;4.78;65.65;99235.86;68441;1280;1016368;-71
2024/02/19 06:21:36;;;;;;;;;;;;;;;4.75;65.86;99232.16;68422;1279;1015358;-71
2024/02/19 06:24:39;;;;;;;;;;;;;;;4.82;65.69;99222.38;68454;1280;1016142;-71
2024/02/19 06:27:41;;;;;;;;;;;;;;;4.83;65.73;99222.54;68445;1280;1016141;-71
2024/02/19 06:30:44;;;;;;;;;;;;;;;4.86;65.24;99216.72;68440;1279;1015758;-70
2024/02/19 06:33:46;;;;;;;;;;;;;;;4.79;65.34;99214.48;68429;1279;1016004;-71
2024/02/19 06:36:49;;;;;;;;;;;;;;;4.85;65.67;99213.63;68439;1279;1015683;-71
2024/02/19 06:39:51;;;;;;;;;;;;;;;4.88;65.52;99217.52;68425;1279;1015981;-71
2024/02/19 06:42:54;;;;;;;;;;;;;;;5.11;65.03;99214.38;68423;1280;1015352;-71
2024/02/19 06:45:58;;;;;;;;;;;;;;;5.10;65.13;99213.70;68441;1280;1014787;-71
2024/02/19 06:49:01;;;;;;;;;;;;;;;5.11;65.80;99214.38;68421;1280;1015504;-71
2024/02/19 06:52:03;;;;;;;;;;;;;;;5.20;65.54;99214.94;68433;1280;1015502;-71
2024/02/19 06:55:06;;;;;;;;;;;;;;;5.17;65.55;99211.23;68443;1279;1015194;-69
2024/02/19 06:58:08;;;;;;;;;;;;;;;5.27;65.46;99203.60;68423;1280;1015703;-69
2024/02/19 07:01:11;;;;;;;;;;;;;;;5.29;65.57;99206.67;68447;1280;1015326;-70
2024/02/19 07:04:13;;;;;;;;;;;;;;;5.34;65.38;99203.06;68423;1280;1015299;-71
2024/02/19 07:07:16;;;;;;;;;;;;;;;5.43;65.07;99205.01;68427;1280;1016238;-71
2024/02/19 07:10:19;;;;;;;;;;;;;;;5.53;64.70;99203.44;68439;1280;1015200;-70
2024/02/19 07:13:21;;;;;;;;;;;;;;;5.48;65.03;99201.02;68429;1279;1015579;-70
2024/02/19 07:16:24;;;;;;;;;;;;;;;5.43;65.25;99202.38;68433;1280;1016109;-70
2024/02/19 07:19:27;;;;;;;;;;;;;;;5.52;65.31;99205.55;68425;1280;1015946;-71
2024/02/19 07:22:29;;;;;;;;;;;;;;;5.62;65.24;99202.09;68432;1280;1015614;-71
2024/02/19 07:25:32;;;;;;;;;;;;;;;5.58;65.76;99203.26;68437;1279;1015504;-70
2024/02/19 07:28:34;;;;;;;;;;;;;;;5.59;65.90;99197.54;68422;1280;1015941;-70
2024/02/19 07:31:37;;;;;;;;;;;;;;;5.72;65.63;99202.08;68429;1279;1015354;-70
2024/02/19 07:34:40;;;;;;;;;;;;;;;5.77;65.65;99193.24;68421;1279;1014858;-70
2024/02/19 07:37:42;;;;;;;;;;;;;;;5.90;65.63;99191.05;68419;1279;1015916;-68
2024/02/19 07:40:45;;;;;;;;;;;;;;;5.95;65.64;99184.98;68446;1279;1016063;-71
2024/02/19 07:43:49;;;;;;;;;;;;;;;5.98;65.69;99178.80;68426;1279;1015631;-69
2024/02/19 07:46:51;;;;;;;;;;;;;;;5.94;65.58;99177.20;68408;1279;1015819;-70
2024/02/19 07:49:54;;;;;;;;;;;;;;;5.90;66.07;99171.24;68430;1279;1015309;-71
2024/02/19 07:52:57;;;;;;;;;;;;;;;6.00;66.04;99172.98;68403;1279;1016030;-70
2024/02/19 07:55:59;;;;;;;;;;;;;;;5.84;67.01;99171.81;68431;1279;1016115;-71
2024/02/19 07:59:02;;;;;;;;;;;;;;;5.82;67.32;99168.27;68416;1279;1015642;-64
2024/02/19 08:02:05;;;;;;;;;;;;;;;5.85;67.52;99171.59;66218;1280;5364036;-70
2024/02/19 08:05:08;;;;;;;;;;;;;;;5.94;67.46;99165.91;68417;1279;1016018;-70
2024/02/19 08:08:10;;;;;;;;;;;;;;;6.05;67.43;99165.87;68412;1280;1014502;-70
2024/02/19 08:11:14;;;;;;;;;;;;;;;6.09;67.91;99161.38;68441;1280;1015797;-70
2024/02/19 08:14:16;;;;;;;;;;;;;;;6.17;68.17;99153.10;68420;1280;1015752;-71
2024/02/19 08:17:28;;;;;;;;;;;;;;;6.19;68.14;99155.66;68364;1280;1016036;-70
2024/02/19 08:20:30;;;;;;;;;;;;;;;6.03;68.89;99155.19;68406;1280;1015313;-70
2024/02/19 08:23:33;;;;;;;;;;;;;;;6.02;69.39;99148.11;68440;1279;1016270;-71
2024/02/19 08:26:35;;;;;;;;;;;;;;;6.13;69.80;99144.06;68428;1279;1015495;-70
2024/02/19 08:29:38;;;;;;;;;;;;;;;6.31;68.90;99140.09;68431;1279;1015985;-70
2024/02/19 08:32:41;;;;;;;;;;;;;;;6.41;68.46;99146.30;68405;1279;1015834;-70
2024/02/19 08:35:43;;;;;;;;;;;;;;;6.61;68.42;99140.11;68415;1279;1015422;-70
2024/02/19 08:38:47;;;;;;;;;;;;;;;6.78;67.84;99136.33;68399;1279;1015979;-70
2024/02/19 08:41:49;;;;;;;;;;;;;;;6.91;67.93;99133.70;68411;1279;1015896;-71
2024/02/19 08:44:52;;;;;;;;;;;;;;;7.10;67.27;99127.52;68431;1279;1015274;-70
2024/02/19 08:47:54;;;;;;;;;;;;;;;7.10;67.42;99123.69;68421;1279;1014810;-70
2024/02/19 08:50:57;;;;;;;;;;;;;;;7.28;67.09;99125.23;68416;1279;1016477;-70
2024/02/19 08:53:59;;;;;;;;;;;;;;;7.43;66.86;99125.64;68423;1279;1016109;-70
2024/02/19 08:57:03;;;;;;;;;;;;;;;7.43;67.35;99125.42;68417;1279;1015477;-71
2024/02/19 09:00:05;;;;;;;;;;;;;;;7.49;67.43;99118.91;68416;1279;1015458;-61
2024/02/19 09:03:08;;;;;;;;;;;;;;;7.60;66.86;99116.52;68435;1279;1015475;-70
2024/02/19 09:06:11;;;;;;;;;;;;;;;7.73;67.27;99114.06;68436;1279;1015734;-70
2024/02/19 09:09:15;;;;;;;;;;;;;;;7.85;67.12;99116.14;68426;1279;1015596;-70
2024/02/19 09:12:17;;;;;;;;;;;;;;;7.91;67.33;99119.15;68423;1279;1015875;-69
2024/02/19 09:15:20;;;;;;;;;;;;;;;8.00;67.43;99114.06;68415;1279;1015957;-70
2024/02/19 09:18:23;;;;;;;;;;;;;;;8.06;67.46;99105.58;68418;1279;1016257;-70
2024/02/19 09:21:25;;;;;;;;;;;;;;;8.06;67.76;99106.48;68427;1279;1015428;-70
2024/02/19 09:24:29;;;;;;;;;;;;;;;8.17;67.61;99099.35;68417;1279;1015158;-70
2024/02/19 09:27:31;;;;;;;;;;;;;;;8.19;66.79;99100.65;68415;1279;1016046;-70
2024/02/19 09:30:34;;;;;;;;;;;;;;;8.19;66.49;99102.55;68401;1279;1015562;-70
2024/02/19 09:33:36;;;;;;;;;;;;;;;8.20;66.49;99100.23;68399;1279;1015805;-70
2024/02/19 09:36:39;;;;;;;;;;;;;;;8.05;66.84;99091.72;68417;1279;1015030;-70
2024/02/19 09:39:41;;;;;;;;;;;;;;;8.11;67.42;99092.14;68416;1279;1015831;-70
2024/02/19 09:42:47;;;;;;;;;;;;;;;8.30;67.12;99090.56;68425;1279;1015900;-69
2024/02/19 09:45:49;;;;;;;;;;;;;;;8.28;67.22;99086.79;68412;1279;1015607;-70
2024/02/19 09:48:54;;;;;;;;;;;;;;;8.29;66.76;99085.52;68402;1279;1016020;-70
2024/02/19 09:51:57;;;;;;;;;;;;;;;8.33;66.88;99087.77;68410;1279;1016002;-70
2024/02/19 09:55:00;;;;;;;;;;;;;;;8.37;67.09;99086.23;68420;1279;1015718;-70
2024/02/19 09:58:02;;;;;;;;;;;;;;;8.35;67.02;99089.29;68413;1279;1016244;-70
2024/02/19 10:01:05;;;;;;;;;;;;;;;8.35;67.11;99091.70;68430;1279;1016075;-70
2024/02/19 10:04:07;;;;;;;;;;;;;;;8.33;67.81;99085.89;68404;1280;1015753;-69
2024/02/19 10:07:10;;;;;;;;;;;;;;;8.34;67.86;99087.21;68419;1280;1016107;-70
2024/02/19 10:10:12;;;;;;;;;;;;;;;8.38;67.35;99085.14;68428;1280;1015827;-70
2024/02/19 10:13:15;;;;;;;;;;;;;;;8.41;67.36;99081.16;68420;1280;1015522;-70
2024/02/19 10:16:18;;;;;;;;;;;;;;;8.24;67.89;99078.48;68413;1280;1015533;-70
2024/02/19 10:19:21;;;;;;;;;;;;;;;8.12;68.52;99080.09;68417;1280;1015837;-69
2024/02/19 10:22:24;;;;;;;;;;;;;;;8.11;68.83;99070.50;68417;1279;1016008;-70
2024/02/19 10:25:27;;;;;;;;;;;;;;;8.12;69.15;99067.70;68410;1280;1016240;-70
2024/02/19 10:28:30;;;;;;;;;;;;;;;8.11;69.59;99064.77;68399;1280;1015048;-70
2024/02/19 10:31:54;;;;;;;;;;;;;;;8.26;69.38;99063.38;68398;1279;1015960;-70
2024/02/19 10:34:56;;;;;;;;;;;;;;;8.35;69.63;99063.11;68405;1279;1015723;-70
2024/02/19 10:37:59;;;;;;;;;;;;;;;8.41;69.85;99058.64;68409;1279;1016121;-70
2024/02/19 10:41:02;;;;;;;;;;;;;;;8.56;69.67;99052.23;68406;1279;1016426;-70
2024/02/19 10:44:04;;;;;;;;;;;;;;;8.68;69.85;99046.02;68406;1279;1014581;-70
2024/02/19 10:47:08;;;;;;;;;;;;;;;8.81;69.45;99048.52;68405;1279;1016145;-70
2024/02/19 10:50:12;;;;;;;;;;;;;;;8.85;69.75;99036.45;68412;1279;1015980;-70
2024/02/19 10:53:16;;;;;;;;;;;;;;;8.85;70.16;99027.91;68405;1279;1016481;-70
2024/02/19 10:56:19;;;;;;;;;;;;;;;8.83;70.92;99024.39;68404;1279;1015793;-70
2024/02/19 10:59:21;;;;;;;;;;;;;;;9.00;71.04;99014.41;68418;1279;1015777;-70
2024/02/19 11:02:25;;;;;;;;;;;;;;;9.03;70.56;99015.14;68407;1279;1017197;-70
2024/02/19 11:05:27;;;;;;;;;;;;;;;9.18;70.28;99008.27;68397;1279;1015459;-70
2024/02/19 11:08:34;;;;;;;;;;;;;;;9.41;69.78;99002.56;68405;1279;1016024;-70
2024/02/19 11:11:37;;;;;;;;;;;;;;;9.50;69.29;98994.58;68408;1279;1015315;-70
2024/02/19 11:14:40;;;;;;;;;;;;;;;9.52;69.37;98995.84;68404;1279;1015448;-70
2024/02/19 11:17:44;;;;;;;;;;;;;;;9.59;69.23;98988.86;68409;1279;1015712;-70
2024/02/19 11:20:47;;;;;;;;;;;;;;;9.63;69.53;98987.02;68406;1279;1015853;-70
2024/02/19 11:23:49;;;;;;;;;;;;;;;9.82;69.86;98986.52;68408;1279;1015567;-70
2024/02/19 11:26:52;;;;;;;;;;;;;;;10.15;68.93;98983.51;68407;1279;1016635;-70
2024/02/19 11:29:54;;;;;;;;;;;;;;;10.22;68.54;98977.80;68407;1279;1015910;-70
2024/02/19 11:32:57;;;;;;;;;;;;;;;10.41;68.04;98974.35;68401;1279;1015898;-68
2024/02/19 11:36:00;;;;;;;;;;;;;;;10.43;67.71;98982.98;68405;1279;1015424;-70
2024/02/19 11:39:03;;;;;;;;;;;;;;;10.27;68.28;98979.52;68400;1279;1016025;-68
2024/02/19 11:42:09;;;;;;;;;;;;;;;10.11;68.26;98972.51;68401;1279;1015084;-68
2024/02/19 11:45:12;;;;;;;;;;;;;;;9.99;68.38;98969.86;68409;1279;1014603;-70
2024/02/19 11:48:14;;;;;;;;;;;;;;;9.98;68.92;98964.48;68414;1279;1015422;-70
2024/02/19 11:51:17;;;;;;;;;;;;;;;9.96;69.91;98956.58;68390;1279;1015719;-70
2024/02/19 11:54:19;;;;;;;;;;;;;;;10.01;69.92;98958.55;68401;1279;1015664;-70
2024/02/19 11:57:23;;;;;;;;;;;;;;;10.01;70.16;98954.22;68415;1279;1015367;-70
2024/02/19 12:00:29;;;;;;;;;;;;;;;10.16;69.96;98949.86;68395;1279;1015895;-70
2024/02/19 12:03:34;;;;;;;;;;;;;;;10.26;69.59;98950.52;68399;1279;1015050;-70
2024/02/19 12:06:36;;;;;;;;;;;;;;;10.32;69.50;98947.02;68389;1279;1015011;-70
2024/02/19 12:09:39;;;;;;;;;;;;;;;10.38;69.60;98939.55;68382;1279;1015684;-70
2024/02/19 12:12:42;;;;;;;;;;;;;;;10.51;69.82;98937.04;68411;1279;1015481;-70
2024/02/19 12:15:44;;;;;;;;;;;;;;;10.37;70.45;98932.77;68408;1279;1016059;-70
2024/02/19 12:18:47;;;;;;;;;;;;;;;10.50;70.44;98928.57;68409;1279;1015491;-69
2024/02/19 12:21:50;;;;;;;;;;;;;;;10.66;70.33;98928.84;68405;1279;1015539;-70
2024/02/19 12:24:53;;;;;;;;;;;;;;;10.78;70.00;98924.75;68388;1279;1016151;-70
2024/02/19 12:27:55;;;;;;;;;;;;;;;10.66;70.47;98919.05;68386;1279;1015929;-70
2024/02/19 12:30:59;;;;;;;;;;;;;;;10.60;70.88;98911.70;68390;1279;1016479;-70
2024/02/19 12:34:01;;;;;;;;;;;;;;;10.60;71.58;98909.95;68399;1279;1016175;-70
2024/02/19 12:37:04;;;;;;;;;;;;;;;10.64;71.75;98911.98;68405;1279;1016237;-70
2024/02/19 12:40:06;;;;;;;;;;;;;;;10.72;71.17;98911.33;68400;1279;1014495;-67
2024/02/19 12:43:09;;;;;;;;;;;;;;;10.63;71.33;98908.01;68389;1279;1016004;-69
2024/02/19 12:46:11;;;;;;;;;;;;;;;10.47;72.40;98904.09;68395;1279;1015286;-69
2024/02/19 12:52:36;;;;;;;;;;;;;;;10.51;73.14;98899.13;68402;1279;1015339;-70
2024/02/19 12:55:40;;;;;;;;;;;;;;;10.65;72.40;98897.96;68405;1279;1016537;-70
2024/02/19 12:58:42;;;;;;;;;;;;;;;10.64;72.18;98894.30;68416;1279;1015535;-69
2024/02/19 13:01:45;;;;;;;;;;;;;;;10.54;73.36;98891.94;68402;1279;1015805;-70
2024/02/19 13:04:48;;;;;;;;;;;;;;;10.78;72.39;98887.72;68394;1279;1015351;-70
2024/02/19 13:07:51;;;;;;;;;;;;;;;10.77;72.48;98892.81;68389;1279;1015478;-69
2024/02/19 13:10:54;;;;;;;;;;;;;;;10.82;72.83;98885.17;68392;1279;1016136;-70
2024/02/19 13:13:57;;;;;;;;;;;;;;;10.91;72.76;98879.58;68409;1279;1015608;-70
2024/02/19 13:16:59;;;;;;;;;;;;;;;10.95;72.72;98873.40;68400;1279;1015623;-70
2024/02/19 13:20:03;;;;;;;;;;;;;;;10.92;72.67;98876.15;68404;1279;1016251;-69
2024/02/19 13:23:05;;;;;;;;;;;;;;;10.95;72.70;98877.39;68392;1279;1016009;-70
2024/02/19 13:26:10;;;;;;;;;;;;;;;11.02;73.32;98876.66;68387;1279;1016009;-69
2024/02/19 13:29:12;;;;;;;;;;;;;;;10.94;73.17;98870.09;68402;1279;1015385;-69
2024/02/19 13:32:15;;;;;;;;;;;;;;;10.94;73.50;98869.22;68394;1279;1016228;-70
2024/02/19 13:35:18;;;;;;;;;;;;;;;10.98;73.29;98871.08;68405;1279;1015802;-70
2024/02/19 13:38:21;;;;;;;;;;;;;;;10.82;74.32;98876.45;68391;1279;1015789;-70
2024/02/19 13:41:24;;;;;;;;;;;;;;;10.70;74.50;98879.78;68387;1279;1016084;-69
2024/02/19 13:44:26;;;;;;;;;;;;;;;10.79;74.99;98877.13;68409;1279;1015552;-69
2024/02/19 13:47:29;;;;;;;;;;;;;;;10.78;75.73;98876.86;68380;1279;1015755;-70
2024/02/19 13:50:31;;;;;;;;;;;;;;;10.94;75.12;98869.60;68391;1279;1016031;-70
2024/02/19 13:53:34;;;;;;;;;;;;;;;10.99;75.55;98867.88;68391;1279;1016297;-70
2024/02/19 13:56:41;;;;;;;;;;;;;;;11.07;75.79;98868.92;68387;1279;1015458;-70
2024/02/19 13:59:43;;;;;;;;;;;;;;;11.19;75.55;98870.14;68401;1279;1015647;-70
2024/02/19 14:02:46;;;;;;;;;;;;;;;11.29;75.33;98868.14;68397;1279;1015578;-69
2024/02/19 14:05:48;;;;;;;;;;;;;;;11.27;75.39;98869.48;68408;1279;1015416;-69
2024/02/19 14:08:51;;;;;;;;;;;;;;;11.32;76.05;98873.88;68400;1279;1015854;-70
2024/02/19 14:11:54;;;;;;;;;;;;;;;11.51;75.38;98877.58;68378;1279;1016105;-69
2024/02/19 14:14:56;;;;;;;;;;;;;;;11.54;75.92;98877.54;68390;1279;1015275;-69
2024/02/19 14:18:00;;;;;;;;;;;;;;;11.65;75.44;98874.77;68408;1279;1014571;-69
2024/02/19 14:21:02;;;;;;;;;;;;;;;11.72;75.63;98878.19;68395;1279;1016038;-69
2024/02/19 14:24:05;;;;;;;;;;;;;;;11.66;76.78;98886.62;68394;1279;1015553;-69
2024/02/19 14:27:08;;;;;;;;;;;;;;;11.59;77.02;98875.68;68395;1279;1015503;-69
2024/02/19 14:30:10;;;;;;;;;;;;;;;11.43;80.98;98879.30;68396;1279;1016283;-69
2024/02/19 14:33:13;;;;;;;;;;;;;;;11.31;83.83;98884.76;68374;1279;1016203;-70
2024/02/19 14:36:16;;;;;;;;;;;;;;;11.23;89.39;98896.46;68417;1279;1016056;-69
2024/02/19 14:39:20;;;;;;;;;;;;;;;11.23;89.13;98900.86;68398;1279;1015872;-70
2024/02/19 14:42:22;;;;;;;;;;;;;;;11.16;89.11;98900.80;68396;1279;1016317;-69
2024/02/19 14:45:25;;;;;;;;;;;;;;;11.25;88.19;98910.34;68412;1279;1015583;-69
2024/02/19 14:48:28;;;;;;;;;;;;;;;11.32;85.81;98912.40;68401;1279;1015911;-69
2024/02/19 14:51:30;;;;;;;;;;;;;;;11.30;85.64;98913.39;68421;1279;1016182;-62
2024/02/19 14:54:33;;;;;;;;;;;;;;;11.26;84.51;98913.61;68395;1279;1015665;-69
2024/02/19 14:57:36;;;;;;;;;;;;;;;11.27;84.16;98912.50;68427;1279;1015514;-69
2024/02/19 15:00:40;;;;;;;;;;;;;;;11.22;84.61;98909.02;68413;1279;1015534;-69
2024/02/19 15:03:44;;;;;;;;;;;;;;;11.21;84.20;98907.45;68408;1279;1015394;-66
2024/02/19 15:06:46;;;;;;;;;;;;;;;11.27;84.69;98910.25;68403;1279;1016190;-69
2024/02/19 15:09:49;;;;;;;;;;;;;;;11.36;83.61;98910.57;68418;1279;1016118;-70
2024/02/19 15:12:52;;;;;;;;;;;;;;;11.43;82.79;98914.33;68412;1279;1016169;-70
2024/02/19 15:15:54;;;;;;;;;;;;;;;11.44;82.44;98914.98;68397;1279;1015713;-70
2024/02/19 15:18:58;;;;;;;;;;;;;;;11.47;81.95;98920.36;68397;1279;1015585;-68
2024/02/19 15:22:00;;;;;;;;;;;;;;;11.47;81.99;98920.73;68412;1279;1015936;-70
2024/02/19 15:25:04;;;;;;;;;;;;;;;11.27;83.18;98921.65;68416;1279;1015200;-70
2024/02/19 15:28:07;;;;;;;;;;;;;;;11.40;81.55;98923.95;68411;1279;1015225;-68
2024/02/19 15:31:09;;;;;;;;;;;;;;;11.38;81.04;98928.15;68404;1279;1015556;-69
2024/02/19 15:34:12;;;;;;;;;;;;;;;11.42;81.27;98923.86;68412;1279;1015756;-69
2024/02/19 15:37:14;;;;;;;;;;;;;;;11.45;81.07;98924.04;68398;1279;1015175;-69